sensor_id;sensor_type;location;lat;lon;timestamp;P1;durP1;ratioP1;P2;durP2;ratioP2
64094;SDS011;50353;51.420;5.682;2023-04-10T00:01:40;9.63;;;6.30;;
64094;SDS011;50353;51.420;5.682;2023-04-10T00:04:05;10.90;;;7.63;;
64094;SDS011;50353;51.420;5.682;2023-04-10T00:06:31;10.50;;;6.70;;
64094;SDS011;50353;51.420;5.682;2023-04-10T00:08:57;10.55;;;7.28;;
64094;SDS011;50353;51.420;5.682;2023-04-10T00:11:23;9.88;;;7.10;;
64094;SDS011;50353;51.420;5.682;2023-04-10T00:13:49;9.88;;;6.75;;
64094;SDS011;50353;51.420;5.682;2023-04-10T00:16:14;12.75;;;7.85;;
64094;SDS011;50353;51.420;5.682;2023-04-10T00:18:39;11.98;;;7.20;;
64094;SDS011;50353;51.420;5.682;2023-04-10T00:21:05;10.98;;;7.35;;
64094;SDS011;50353;51.420;5.682;2023-04-10T00:23:30;11.45;;;7.68;;
64094;SDS011;50353;51.420;5.682;2023-04-10T00:25:56;9.95;;;7.18;;
64094;SDS011;50353;51.420;5.682;2023-04-10T00:28:22;9.80;;;7.32;;
64094;SDS011;50353;51.420;5.682;2023-04-10T00:30:47;12.45;;;7.40;;
64094;SDS011;50353;51.420;5.682;2023-04-10T00:33:12;10.55;;;7.07;;
64094;SDS011;50353;51.420;5.682;2023-04-10T00:35:38;10.35;;;7.30;;
64094;SDS011;50353;51.420;5.682;2023-04-10T00:38:03;11.23;;;7.55;;
64094;SDS011;50353;51.420;5.682;2023-04-10T00:40:29;11.38;;;7.47;;
64094;SDS011;50353;51.420;5.682;2023-04-10T00:42:54;11.18;;;7.47;;
64094;SDS011;50353;51.420;5.682;2023-04-10T00:45:19;11.27;;;7.80;;
64094;SDS011;50353;51.420;5.682;2023-04-10T00:47:45;9.57;;;7.20;;
64094;SDS011;50353;51.420;5.682;2023-04-10T00:50:10;10.88;;;7.75;;
64094;SDS011;50353;51.420;5.682;2023-04-10T00:52:36;11.55;;;7.53;;
64094;SDS011;50353;51.420;5.682;2023-04-10T00:55:02;13.43;;;7.88;;
64094;SDS011;50353;51.420;5.682;2023-04-10T00:57:28;11.10;;;7.30;;
64094;SDS011;50353;51.420;5.682;2023-04-10T00:59:53;12.05;;;8.00;;
64094;SDS011;50353;51.420;5.682;2023-04-10T01:02:19;9.77;;;7.20;;
64094;SDS011;50353;51.420;5.682;2023-04-10T01:04:44;11.85;;;6.75;;
64094;SDS011;50353;51.420;5.682;2023-04-10T01:07:27;9.98;;;7.30;;
64094;SDS011;50353;51.420;5.682;2023-04-10T01:10:12;10.90;;;7.78;;
64094;SDS011;50353;51.420;5.682;2023-04-10T01:12:45;10.18;;;7.15;;
64094;SDS011;50353;51.420;5.682;2023-04-10T01:15:24;11.80;;;7.82;;
64094;SDS011;50353;51.420;5.682;2023-04-10T01:17:56;11.65;;;7.88;;
64094;SDS011;50353;51.420;5.682;2023-04-10T01:20:29;10.23;;;7.63;;
64094;SDS011;50353;51.420;5.682;2023-04-10T01:26:04;11.70;;;7.35;;
64094;SDS011;50353;51.420;5.682;2023-04-10T01:28:39;11.88;;;7.88;;
64094;SDS011;50353;51.420;5.682;2023-04-10T01:31:06;11.68;;;7.85;;
64094;SDS011;50353;51.420;5.682;2023-04-10T01:33:37;12.35;;;8.13;;
64094;SDS011;50353;51.420;5.682;2023-04-10T01:36:09;11.98;;;8.40;;
64094;SDS011;50353;51.420;5.682;2023-04-10T01:38:41;10.30;;;7.68;;
64094;SDS011;50353;51.420;5.682;2023-04-10T01:41:08;11.18;;;7.78;;
64094;SDS011;50353;51.420;5.682;2023-04-10T01:43:33;11.60;;;7.85;;
64094;SDS011;50353;51.420;5.682;2023-04-10T01:46:00;11.40;;;8.03;;
64094;SDS011;50353;51.420;5.682;2023-04-10T01:48:27;10.32;;;7.93;;
64094;SDS011;50353;51.420;5.682;2023-04-10T01:50:53;11.95;;;7.55;;
64094;SDS011;50353;51.420;5.682;2023-04-10T01:53:20;11.32;;;7.93;;
64094;SDS011;50353;51.420;5.682;2023-04-10T01:55:47;12.48;;;8.38;;
64094;SDS011;50353;51.420;5.682;2023-04-10T01:58:13;11.05;;;7.80;;
64094;SDS011;50353;51.420;5.682;2023-04-10T02:00:40;10.27;;;7.78;;
64094;SDS011;50353;51.420;5.682;2023-04-10T02:03:07;11.38;;;7.72;;
64094;SDS011;50353;51.420;5.682;2023-04-10T02:05:40;9.95;;;7.15;;
64094;SDS011;50353;51.420;5.682;2023-04-10T02:11:32;12.35;;;8.15;;
64094;SDS011;50353;51.420;5.682;2023-04-10T02:14:21;11.82;;;7.70;;
64094;SDS011;50353;51.420;5.682;2023-04-10T02:16:50;10.88;;;7.63;;
64094;SDS011;50353;51.420;5.682;2023-04-10T02:19:18;13.68;;;9.10;;
64094;SDS011;50353;51.420;5.682;2023-04-10T02:21:45;11.70;;;8.15;;
64094;SDS011;50353;51.420;5.682;2023-04-10T02:24:11;10.68;;;7.72;;
64094;SDS011;50353;51.420;5.682;2023-04-10T02:26:44;11.20;;;7.78;;
64094;SDS011;50353;51.420;5.682;2023-04-10T02:29:10;10.48;;;7.70;;
64094;SDS011;50353;51.420;5.682;2023-04-10T02:31:36;12.07;;;8.18;;
64094;SDS011;50353;51.420;5.682;2023-04-10T02:34:01;12.52;;;8.32;;
64094;SDS011;50353;51.420;5.682;2023-04-10T02:36:27;10.85;;;7.90;;
64094;SDS011;50353;51.420;5.682;2023-04-10T02:38:52;13.38;;;7.57;;
64094;SDS011;50353;51.420;5.682;2023-04-10T02:41:17;10.88;;;7.72;;
64094;SDS011;50353;51.420;5.682;2023-04-10T02:43:42;10.43;;;7.43;;
64094;SDS011;50353;51.420;5.682;2023-04-10T02:46:08;10.68;;;7.43;;
64094;SDS011;50353;51.420;5.682;2023-04-10T02:48:33;11.73;;;7.55;;
64094;SDS011;50353;51.420;5.682;2023-04-10T02:50:58;12.82;;;7.68;;
64094;SDS011;50353;51.420;5.682;2023-04-10T02:53:24;11.38;;;8.15;;
64094;SDS011;50353;51.420;5.682;2023-04-10T02:55:51;10.25;;;7.57;;
64094;SDS011;50353;51.420;5.682;2023-04-10T02:58:17;10.73;;;7.40;;
64094;SDS011;50353;51.420;5.682;2023-04-10T03:00:48;10.82;;;7.28;;
64094;SDS011;50353;51.420;5.682;2023-04-10T03:03:15;10.27;;;7.13;;
64094;SDS011;50353;51.420;5.682;2023-04-10T03:05:41;10.57;;;7.32;;
64094;SDS011;50353;51.420;5.682;2023-04-10T03:08:06;9.05;;;6.78;;
64094;SDS011;50353;51.420;5.682;2023-04-10T03:10:31;12.68;;;7.53;;
64094;SDS011;50353;51.420;5.682;2023-04-10T03:12:57;11.25;;;7.47;;
64094;SDS011;50353;51.420;5.682;2023-04-10T03:15:22;12.27;;;7.75;;
64094;SDS011;50353;51.420;5.682;2023-04-10T03:17:47;10.90;;;7.60;;
64094;SDS011;50353;51.420;5.682;2023-04-10T03:20:12;10.45;;;7.72;;
64094;SDS011;50353;51.420;5.682;2023-04-10T03:22:38;11.07;;;7.68;;
64094;SDS011;50353;51.420;5.682;2023-04-10T03:25:04;9.95;;;7.00;;
64094;SDS011;50353;51.420;5.682;2023-04-10T03:27:29;11.20;;;7.60;;
64094;SDS011;50353;51.420;5.682;2023-04-10T03:29:57;12.57;;;7.05;;
64094;SDS011;50353;51.420;5.682;2023-04-10T03:32:22;11.18;;;7.70;;
64094;SDS011;50353;51.420;5.682;2023-04-10T03:34:48;9.95;;;7.00;;
64094;SDS011;50353;51.420;5.682;2023-04-10T03:37:13;12.93;;;7.10;;
64094;SDS011;50353;51.420;5.682;2023-04-10T03:39:38;9.93;;;7.32;;
64094;SDS011;50353;51.420;5.682;2023-04-10T03:42:04;10.25;;;7.35;;
64094;SDS011;50353;51.420;5.682;2023-04-10T03:44:29;10.07;;;7.10;;
64094;SDS011;50353;51.420;5.682;2023-04-10T03:46:54;11.30;;;6.70;;
64094;SDS011;50353;51.420;5.682;2023-04-10T03:49:20;10.65;;;6.55;;
64094;SDS011;50353;51.420;5.682;2023-04-10T03:51:45;10.30;;;6.95;;
64094;SDS011;50353;51.420;5.682;2023-04-10T03:54:10;9.82;;;6.80;;
64094;SDS011;50353;51.420;5.682;2023-04-10T03:56:36;10.00;;;7.13;;
64094;SDS011;50353;51.420;5.682;2023-04-10T03:59:01;11.32;;;7.15;;
64094;SDS011;50353;51.420;5.682;2023-04-10T04:01:26;10.75;;;7.35;;
64094;SDS011;50353;51.420;5.682;2023-04-10T04:03:51;9.50;;;6.57;;
64094;SDS011;50353;51.420;5.682;2023-04-10T04:06:17;10.73;;;6.70;;
64094;SDS011;50353;51.420;5.682;2023-04-10T04:08:42;9.82;;;6.80;;
64094;SDS011;50353;51.420;5.682;2023-04-10T04:11:07;9.38;;;7.05;;
64094;SDS011;50353;51.420;5.682;2023-04-10T04:13:32;9.13;;;6.43;;
64094;SDS011;50353;51.420;5.682;2023-04-10T04:15:58;9.93;;;7.10;;
64094;SDS011;50353;51.420;5.682;2023-04-10T04:18:23;10.55;;;7.00;;
64094;SDS011;50353;51.420;5.682;2023-04-10T04:20:48;10.82;;;6.95;;
64094;SDS011;50353;51.420;5.682;2023-04-10T04:23:14;9.90;;;7.07;;
64094;SDS011;50353;51.420;5.682;2023-04-10T04:25:39;11.13;;;7.30;;
64094;SDS011;50353;51.420;5.682;2023-04-10T04:28:04;9.70;;;6.72;;
64094;SDS011;50353;51.420;5.682;2023-04-10T04:30:30;10.15;;;7.28;;
64094;SDS011;50353;51.420;5.682;2023-04-10T04:32:55;11.30;;;7.68;;
64094;SDS011;50353;51.420;5.682;2023-04-10T04:35:20;10.68;;;7.63;;
64094;SDS011;50353;51.420;5.682;2023-04-10T04:37:46;11.38;;;7.80;;
64094;SDS011;50353;51.420;5.682;2023-04-10T04:40:11;10.13;;;6.90;;
64094;SDS011;50353;51.420;5.682;2023-04-10T04:42:36;9.63;;;6.57;;
64094;SDS011;50353;51.420;5.682;2023-04-10T04:45:02;12.25;;;7.15;;
64094;SDS011;50353;51.420;5.682;2023-04-10T04:47:27;10.70;;;7.25;;
64094;SDS011;50353;51.420;5.682;2023-04-10T04:49:52;11.27;;;7.32;;
64094;SDS011;50353;51.420;5.682;2023-04-10T04:52:18;11.18;;;7.30;;
64094;SDS011;50353;51.420;5.682;2023-04-10T04:54:43;10.40;;;6.78;;
64094;SDS011;50353;51.420;5.682;2023-04-10T04:57:08;11.35;;;7.05;;
64094;SDS011;50353;51.420;5.682;2023-04-10T04:59:34;9.85;;;6.80;;
64094;SDS011;50353;51.420;5.682;2023-04-10T05:01:59;10.75;;;7.30;;
64094;SDS011;50353;51.420;5.682;2023-04-10T05:04:24;12.38;;;7.30;;
64094;SDS011;50353;51.420;5.682;2023-04-10T05:06:50;11.05;;;7.38;;
64094;SDS011;50353;51.420;5.682;2023-04-10T05:09:15;13.15;;;8.15;;
64094;SDS011;50353;51.420;5.682;2023-04-10T05:11:40;8.88;;;6.35;;
64094;SDS011;50353;51.420;5.682;2023-04-10T05:14:06;10.98;;;7.65;;
64094;SDS011;50353;51.420;5.682;2023-04-10T05:16:31;12.55;;;7.72;;
64094;SDS011;50353;51.420;5.682;2023-04-10T05:18:56;10.63;;;7.57;;
64094;SDS011;50353;51.420;5.682;2023-04-10T05:21:21;9.48;;;6.88;;
64094;SDS011;50353;51.420;5.682;2023-04-10T05:23:47;10.10;;;7.45;;
64094;SDS011;50353;51.420;5.682;2023-04-10T05:26:12;8.82;;;6.20;;
64094;SDS011;50353;51.420;5.682;2023-04-10T05:28:37;11.60;;;7.80;;
64094;SDS011;50353;51.420;5.682;2023-04-10T05:31:03;13.13;;;7.53;;
64094;SDS011;50353;51.420;5.682;2023-04-10T05:33:28;10.10;;;7.32;;
64094;SDS011;50353;51.420;5.682;2023-04-10T05:35:53;10.75;;;7.32;;
64094;SDS011;50353;51.420;5.682;2023-04-10T05:38:18;11.32;;;7.50;;
64094;SDS011;50353;51.420;5.682;2023-04-10T05:40:44;12.35;;;7.45;;
64094;SDS011;50353;51.420;5.682;2023-04-10T05:43:09;13.90;;;7.70;;
64094;SDS011;50353;51.420;5.682;2023-04-10T05:45:35;10.63;;;7.47;;
64094;SDS011;50353;51.420;5.682;2023-04-10T05:48:00;11.18;;;7.75;;
64094;SDS011;50353;51.420;5.682;2023-04-10T05:50:25;10.25;;;7.10;;
64094;SDS011;50353;51.420;5.682;2023-04-10T05:52:51;12.15;;;7.28;;
64094;SDS011;50353;51.420;5.682;2023-04-10T05:55:16;13.25;;;7.78;;
64094;SDS011;50353;51.420;5.682;2023-04-10T05:57:41;16.35;;;7.60;;
64094;SDS011;50353;51.420;5.682;2023-04-10T06:00:07;11.10;;;7.57;;
64094;SDS011;50353;51.420;5.682;2023-04-10T06:02:33;11.95;;;8.07;;
64094;SDS011;50353;51.420;5.682;2023-04-10T06:04:58;10.13;;;7.72;;
64094;SDS011;50353;51.420;5.682;2023-04-10T06:07:23;11.90;;;8.20;;
64094;SDS011;50353;51.420;5.682;2023-04-10T06:09:48;13.32;;;7.65;;
64094;SDS011;50353;51.420;5.682;2023-04-10T06:12:14;10.98;;;7.65;;
64094;SDS011;50353;51.420;5.682;2023-04-10T06:14:39;12.50;;;8.27;;
64094;SDS011;50353;51.420;5.682;2023-04-10T06:17:04;12.23;;;7.93;;
64094;SDS011;50353;51.420;5.682;2023-04-10T06:19:30;12.93;;;8.13;;
64094;SDS011;50353;51.420;5.682;2023-04-10T06:21:55;11.48;;;7.28;;
64094;SDS011;50353;51.420;5.682;2023-04-10T06:24:21;11.20;;;7.20;;
64094;SDS011;50353;51.420;5.682;2023-04-10T06:26:46;10.35;;;7.18;;
64094;SDS011;50353;51.420;5.682;2023-04-10T06:29:11;11.82;;;7.45;;
64094;SDS011;50353;51.420;5.682;2023-04-10T06:31:37;11.23;;;6.85;;
64094;SDS011;50353;51.420;5.682;2023-04-10T06:34:02;10.95;;;7.43;;
64094;SDS011;50353;51.420;5.682;2023-04-10T06:36:27;10.25;;;7.38;;
64094;SDS011;50353;51.420;5.682;2023-04-10T06:38:53;9.98;;;7.00;;
64094;SDS011;50353;51.420;5.682;2023-04-10T06:41:18;9.05;;;6.53;;
64094;SDS011;50353;51.420;5.682;2023-04-10T06:43:43;9.55;;;6.53;;
64094;SDS011;50353;51.420;5.682;2023-04-10T06:46:10;10.50;;;7.07;;
64094;SDS011;50353;51.420;5.682;2023-04-10T06:48:36;12.15;;;7.22;;
64094;SDS011;50353;51.420;5.682;2023-04-10T06:51:01;9.20;;;6.50;;
64094;SDS011;50353;51.420;5.682;2023-04-10T06:53:27;12.45;;;7.07;;
64094;SDS011;50353;51.420;5.682;2023-04-10T06:55:52;11.30;;;6.95;;
64094;SDS011;50353;51.420;5.682;2023-04-10T06:58:17;8.98;;;6.63;;
64094;SDS011;50353;51.420;5.682;2023-04-10T07:00:43;9.93;;;6.80;;
64094;SDS011;50353;51.420;5.682;2023-04-10T07:03:08;12.23;;;6.80;;
64094;SDS011;50353;51.420;5.682;2023-04-10T07:05:33;11.18;;;6.82;;
64094;SDS011;50353;51.420;5.682;2023-04-10T07:07:59;9.10;;;6.55;;
64094;SDS011;50353;51.420;5.682;2023-04-10T07:10:24;10.50;;;6.93;;
64094;SDS011;50353;51.420;5.682;2023-04-10T07:12:50;9.75;;;6.82;;
64094;SDS011;50353;51.420;5.682;2023-04-10T07:15:15;10.82;;;6.55;;
64094;SDS011;50353;51.420;5.682;2023-04-10T07:17:40;10.35;;;6.90;;
64094;SDS011;50353;51.420;5.682;2023-04-10T07:20:07;10.25;;;6.70;;
64094;SDS011;50353;51.420;5.682;2023-04-10T07:22:32;24.25;;;6.60;;
64094;SDS011;50353;51.420;5.682;2023-04-10T07:24:57;14.32;;;6.88;;
64094;SDS011;50353;51.420;5.682;2023-04-10T07:27:23;13.82;;;6.82;;
64094;SDS011;50353;51.420;5.682;2023-04-10T07:29:48;8.05;;;5.85;;
64094;SDS011;50353;51.420;5.682;2023-04-10T07:32:14;9.63;;;5.93;;
64094;SDS011;50353;51.420;5.682;2023-04-10T07:34:40;10.50;;;6.55;;
64094;SDS011;50353;51.420;5.682;2023-04-10T07:37:06;8.93;;;6.28;;
64094;SDS011;50353;51.420;5.682;2023-04-10T07:39:31;9.65;;;6.68;;
64094;SDS011;50353;51.420;5.682;2023-04-10T07:41:56;9.63;;;6.53;;
64094;SDS011;50353;51.420;5.682;2023-04-10T07:44:22;11.27;;;6.90;;
64094;SDS011;50353;51.420;5.682;2023-04-10T07:46:47;9.25;;;6.43;;
64094;SDS011;50353;51.420;5.682;2023-04-10T07:49:13;9.15;;;6.57;;
64094;SDS011;50353;51.420;5.682;2023-04-10T07:51:38;9.18;;;6.35;;
64094;SDS011;50353;51.420;5.682;2023-04-10T07:54:03;12.05;;;6.43;;
64094;SDS011;50353;51.420;5.682;2023-04-10T07:56:28;11.82;;;6.78;;
64094;SDS011;50353;51.420;5.682;2023-04-10T07:58:57;9.57;;;6.63;;
64094;SDS011;50353;51.420;5.682;2023-04-10T08:01:24;11.02;;;6.75;;
64094;SDS011;50353;51.420;5.682;2023-04-10T08:03:50;10.38;;;6.55;;
64094;SDS011;50353;51.420;5.682;2023-04-10T08:06:16;9.60;;;7.17;;
64094;SDS011;50353;51.420;5.682;2023-04-10T08:08:41;11.07;;;6.72;;
64094;SDS011;50353;51.420;5.682;2023-04-10T08:11:20;10.13;;;6.90;;
64094;SDS011;50353;51.420;5.682;2023-04-10T08:13:56;9.57;;;6.55;;
64094;SDS011;50353;51.420;5.682;2023-04-10T08:16:28;9.27;;;6.03;;
64094;SDS011;50353;51.420;5.682;2023-04-10T08:18:55;9.27;;;6.70;;
64094;SDS011;50353;51.420;5.682;2023-04-10T08:21:21;9.27;;;6.80;;
64094;SDS011;50353;51.420;5.682;2023-04-10T08:23:54;11.33;;;6.30;;
64094;SDS011;50353;51.420;5.682;2023-04-10T08:26:21;10.10;;;6.80;;
64094;SDS011;50353;51.420;5.682;2023-04-10T08:28:47;10.10;;;6.82;;
64094;SDS011;50353;51.420;5.682;2023-04-10T08:31:14;10.85;;;7.25;;
64094;SDS011;50353;51.420;5.682;2023-04-10T08:33:40;10.88;;;6.93;;
64094;SDS011;50353;51.420;5.682;2023-04-10T08:36:07;10.20;;;7.25;;
64094;SDS011;50353;51.420;5.682;2023-04-10T08:38:32;10.05;;;6.72;;
64094;SDS011;50353;51.420;5.682;2023-04-10T08:40:58;13.38;;;7.00;;
64094;SDS011;50353;51.420;5.682;2023-04-10T08:43:23;10.07;;;6.10;;
64094;SDS011;50353;51.420;5.682;2023-04-10T08:45:50;10.93;;;6.68;;
64094;SDS011;50353;51.420;5.682;2023-04-10T08:48:17;9.43;;;7.00;;
64094;SDS011;50353;51.420;5.682;2023-04-10T08:50:44;9.95;;;6.40;;
64094;SDS011;50353;51.420;5.682;2023-04-10T08:53:12;10.85;;;6.43;;
64094;SDS011;50353;51.420;5.682;2023-04-10T08:55:39;10.82;;;6.68;;
64094;SDS011;50353;51.420;5.682;2023-04-10T08:58:05;9.10;;;6.35;;
64094;SDS011;50353;51.420;5.682;2023-04-10T09:00:34;10.32;;;6.70;;
64094;SDS011;50353;51.420;5.682;2023-04-10T09:03:02;9.10;;;6.75;;
64094;SDS011;50353;51.420;5.682;2023-04-10T09:05:29;10.18;;;7.15;;
64094;SDS011;50353;51.420;5.682;2023-04-10T09:07:54;9.73;;;6.40;;
64094;SDS011;50353;51.420;5.682;2023-04-10T09:10:20;9.60;;;6.65;;
64094;SDS011;50353;51.420;5.682;2023-04-10T09:12:46;9.63;;;6.50;;
64094;SDS011;50353;51.420;5.682;2023-04-10T09:15:12;10.43;;;6.90;;
64094;SDS011;50353;51.420;5.682;2023-04-10T09:17:38;10.10;;;6.97;;
64094;SDS011;50353;51.420;5.682;2023-04-10T09:20:19;8.65;;;6.50;;
64094;SDS011;50353;51.420;5.682;2023-04-10T09:22:46;9.50;;;7.03;;
64094;SDS011;50353;51.420;5.682;2023-04-10T09:25:26;15.30;;;6.85;;
64094;SDS011;50353;51.420;5.682;2023-04-10T09:28:03;9.23;;;6.70;;
64094;SDS011;50353;51.420;5.682;2023-04-10T09:30:33;8.45;;;6.63;;
64094;SDS011;50353;51.420;5.682;2023-04-10T09:33:02;9.48;;;6.90;;
64094;SDS011;50353;51.420;5.682;2023-04-10T09:35:34;10.40;;;7.05;;
64094;SDS011;50353;51.420;5.682;2023-04-10T09:38:12;9.57;;;6.60;;
64094;SDS011;50353;51.420;5.682;2023-04-10T09:40:41;9.73;;;6.85;;
64094;SDS011;50353;51.420;5.682;2023-04-10T09:43:20;8.27;;;5.93;;
64094;SDS011;50353;51.420;5.682;2023-04-10T09:45:47;8.77;;;6.15;;
64094;SDS011;50353;51.420;5.682;2023-04-10T09:48:21;9.43;;;6.47;;
64094;SDS011;50353;51.420;5.682;2023-04-10T09:50:47;9.30;;;6.45;;
64094;SDS011;50353;51.420;5.682;2023-04-10T09:53:14;10.05;;;6.93;;
64094;SDS011;50353;51.420;5.682;2023-04-10T09:55:44;9.32;;;6.40;;
64094;SDS011;50353;51.420;5.682;2023-04-10T09:58:13;8.73;;;6.13;;
64094;SDS011;50353;51.420;5.682;2023-04-10T10:00:43;8.57;;;6.10;;
64094;SDS011;50353;51.420;5.682;2023-04-10T10:03:11;8.75;;;6.07;;
64094;SDS011;50353;51.420;5.682;2023-04-10T10:05:39;7.60;;;5.50;;
64094;SDS011;50353;51.420;5.682;2023-04-10T10:08:08;8.55;;;5.53;;
64094;SDS011;50353;51.420;5.682;2023-04-10T10:10:36;7.80;;;5.80;;
64094;SDS011;50353;51.420;5.682;2023-04-10T10:13:09;7.70;;;5.47;;
64094;SDS011;50353;51.420;5.682;2023-04-10T10:15:43;7.57;;;5.65;;
64094;SDS011;50353;51.420;5.682;2023-04-10T10:18:38;7.53;;;5.38;;
64094;SDS011;50353;51.420;5.682;2023-04-10T10:21:15;9.50;;;5.57;;
64094;SDS011;50353;51.420;5.682;2023-04-10T10:23:42;7.22;;;5.05;;
64094;SDS011;50353;51.420;5.682;2023-04-10T10:26:10;8.68;;;5.50;;
64094;SDS011;50353;51.420;5.682;2023-04-10T10:28:36;8.45;;;5.30;;
64094;SDS011;50353;51.420;5.682;2023-04-10T10:31:03;11.50;;;5.47;;
64094;SDS011;50353;51.420;5.682;2023-04-10T10:33:29;9.73;;;5.32;;
64094;SDS011;50353;51.420;5.682;2023-04-10T10:35:59;8.10;;;4.78;;
64094;SDS011;50353;51.420;5.682;2023-04-10T10:38:25;7.13;;;4.78;;
64094;SDS011;50353;51.420;5.682;2023-04-10T10:40:57;7.57;;;5.18;;
64094;SDS011;50353;51.420;5.682;2023-04-10T10:46:21;7.70;;;5.20;;
64094;SDS011;50353;51.420;5.682;2023-04-10T10:48:56;11.40;;;5.00;;
64094;SDS011;50353;51.420;5.682;2023-04-10T10:51:22;6.43;;;4.47;;
64094;SDS011;50353;51.420;5.682;2023-04-10T10:53:48;6.60;;;4.75;;
64094;SDS011;50353;51.420;5.682;2023-04-10T10:58:51;8.13;;;4.20;;
64094;SDS011;50353;51.420;5.682;2023-04-10T11:01:27;8.23;;;4.63;;
64094;SDS011;50353;51.420;5.682;2023-04-10T11:03:52;7.95;;;4.45;;
64094;SDS011;50353;51.420;5.682;2023-04-10T11:06:18;6.93;;;4.18;;
64094;SDS011;50353;51.420;5.682;2023-04-10T11:08:48;8.07;;;4.38;;
64094;SDS011;50353;51.420;5.682;2023-04-10T11:11:20;5.50;;;4.00;;
64094;SDS011;50353;51.420;5.682;2023-04-10T11:16:14;8.25;;;4.32;;
64094;SDS011;50353;51.420;5.682;2023-04-10T11:21:09;5.25;;;3.70;;
64094;SDS011;50353;51.420;5.682;2023-04-10T11:29:02;12.43;;;4.00;;
64094;SDS011;50353;51.420;5.682;2023-04-10T11:31:28;6.43;;;4.20;;
64094;SDS011;50353;51.420;5.682;2023-04-10T11:36:22;6.57;;;3.88;;
64094;SDS011;50353;51.420;5.682;2023-04-10T11:39:07;4.70;;;3.25;;
64094;SDS011;50353;51.420;5.682;2023-04-10T11:44:01;4.97;;;3.40;;
64094;SDS011;50353;51.420;5.682;2023-04-10T11:46:28;7.00;;;3.58;;
64094;SDS011;50353;51.420;5.682;2023-04-10T11:48:55;6.95;;;3.70;;
64094;SDS011;50353;51.420;5.682;2023-04-10T11:51:22;11.88;;;3.72;;
64094;SDS011;50353;51.420;5.682;2023-04-10T11:53:48;5.22;;;3.60;;
64094;SDS011;50353;51.420;5.682;2023-04-10T11:56:17;4.93;;;3.47;;
64094;SDS011;50353;51.420;5.682;2023-04-10T11:58:46;5.88;;;3.53;;
64094;SDS011;50353;51.420;5.682;2023-04-10T12:01:13;5.63;;;3.47;;
64094;SDS011;50353;51.420;5.682;2023-04-10T12:03:42;4.95;;;3.72;;
64094;SDS011;50353;51.420;5.682;2023-04-10T12:06:11;10.98;;;4.00;;
64094;SDS011;50353;51.420;5.682;2023-04-10T12:08:42;12.10;;;3.20;;
64094;SDS011;50353;51.420;5.682;2023-04-10T12:11:13;12.95;;;3.72;;
64094;SDS011;50353;51.420;5.682;2023-04-10T12:13:41;6.97;;;3.38;;
64094;SDS011;50353;51.420;5.682;2023-04-10T12:16:06;5.18;;;3.05;;
64094;SDS011;50353;51.420;5.682;2023-04-10T12:18:33;3.92;;;2.85;;
64094;SDS011;50353;51.420;5.682;2023-04-10T12:20:59;5.93;;;3.10;;
64094;SDS011;50353;51.420;5.682;2023-04-10T12:23:25;7.28;;;3.08;;
64094;SDS011;50353;51.420;5.682;2023-04-10T12:25:52;5.18;;;2.97;;
64094;SDS011;50353;51.420;5.682;2023-04-10T12:28:29;4.85;;;3.30;;
64094;SDS011;50353;51.420;5.682;2023-04-10T12:30:55;9.45;;;3.40;;
64094;SDS011;50353;51.420;5.682;2023-04-10T12:33:23;5.32;;;3.30;;
64094;SDS011;50353;51.420;5.682;2023-04-10T12:35:50;6.35;;;3.08;;
64094;SDS011;50353;51.420;5.682;2023-04-10T12:38:33;5.07;;;3.10;;
64094;SDS011;50353;51.420;5.682;2023-04-10T12:40:59;5.60;;;3.03;;
64094;SDS011;50353;51.420;5.682;2023-04-10T12:43:29;4.53;;;3.20;;
64094;SDS011;50353;51.420;5.682;2023-04-10T12:45:56;4.07;;;2.78;;
64094;SDS011;50353;51.420;5.682;2023-04-10T12:48:22;5.65;;;3.30;;
64094;SDS011;50353;51.420;5.682;2023-04-10T12:50:48;4.82;;;3.15;;
64094;SDS011;50353;51.420;5.682;2023-04-10T12:53:13;4.68;;;3.03;;
64094;SDS011;50353;51.420;5.682;2023-04-10T12:55:39;6.88;;;2.97;;
64094;SDS011;50353;51.420;5.682;2023-04-10T12:58:17;4.10;;;2.90;;
64094;SDS011;50353;51.420;5.682;2023-04-10T13:00:46;5.25;;;3.17;;
64094;SDS011;50353;51.420;5.682;2023-04-10T13:03:12;7.75;;;3.10;;
64094;SDS011;50353;51.420;5.682;2023-04-10T13:05:37;5.78;;;3.10;;
64094;SDS011;50353;51.420;5.682;2023-04-10T13:08:03;5.15;;;3.28;;
64094;SDS011;50353;51.420;5.682;2023-04-10T13:10:28;8.07;;;3.00;;
64094;SDS011;50353;51.420;5.682;2023-04-10T13:12:54;6.82;;;3.30;;
64094;SDS011;50353;51.420;5.682;2023-04-10T13:15:19;8.15;;;3.30;;
64094;SDS011;50353;51.420;5.682;2023-04-10T13:17:45;5.53;;;3.10;;
64094;SDS011;50353;51.420;5.682;2023-04-10T13:20:10;4.20;;;2.85;;
64094;SDS011;50353;51.420;5.682;2023-04-10T13:22:36;4.90;;;3.00;;
64094;SDS011;50353;51.420;5.682;2023-04-10T13:25:02;12.55;;;3.03;;
64094;SDS011;50353;51.420;5.682;2023-04-10T13:27:28;7.10;;;3.13;;
64094;SDS011;50353;51.420;5.682;2023-04-10T13:29:54;4.50;;;2.88;;
64094;SDS011;50353;51.420;5.682;2023-04-10T13:32:19;5.00;;;2.80;;
64094;SDS011;50353;51.420;5.682;2023-04-10T13:34:45;6.63;;;3.03;;
64094;SDS011;50353;51.420;5.682;2023-04-10T13:37:10;10.38;;;2.83;;
64094;SDS011;50353;51.420;5.682;2023-04-10T13:39:37;9.73;;;3.05;;
64094;SDS011;50353;51.420;5.682;2023-04-10T13:42:02;8.50;;;2.97;;
64094;SDS011;50353;51.420;5.682;2023-04-10T13:44:27;7.25;;;2.45;;
64094;SDS011;50353;51.420;5.682;2023-04-10T13:46:53;6.72;;;2.90;;
64094;SDS011;50353;51.420;5.682;2023-04-10T13:49:19;8.10;;;2.92;;
64094;SDS011;50353;51.420;5.682;2023-04-10T13:51:45;4.72;;;2.65;;
64094;SDS011;50353;51.420;5.682;2023-04-10T13:54:12;4.03;;;2.60;;
64094;SDS011;50353;51.420;5.682;2023-04-10T13:56:37;4.43;;;2.58;;
64094;SDS011;50353;51.420;5.682;2023-04-10T13:59:03;3.92;;;2.67;;
64094;SDS011;50353;51.420;5.682;2023-04-10T14:01:28;7.30;;;2.75;;
64094;SDS011;50353;51.420;5.682;2023-04-10T14:03:54;8.00;;;2.60;;
64094;SDS011;50353;51.420;5.682;2023-04-10T14:06:20;4.32;;;2.58;;
64094;SDS011;50353;51.420;5.682;2023-04-10T14:08:45;9.55;;;2.72;;
64094;SDS011;50353;51.420;5.682;2023-04-10T14:11:10;7.95;;;2.92;;
64094;SDS011;50353;51.420;5.682;2023-04-10T14:13:36;5.88;;;2.30;;
64094;SDS011;50353;51.420;5.682;2023-04-10T14:16:01;3.53;;;2.45;;
64094;SDS011;50353;51.420;5.682;2023-04-10T14:18:28;4.43;;;2.85;;
64094;SDS011;50353;51.420;5.682;2023-04-10T14:20:53;5.65;;;2.70;;
64094;SDS011;50353;51.420;5.682;2023-04-10T14:23:18;3.85;;;2.60;;
64094;SDS011;50353;51.420;5.682;2023-04-10T14:25:44;4.57;;;2.60;;
64094;SDS011;50353;51.420;5.682;2023-04-10T14:28:10;4.60;;;2.80;;
64094;SDS011;50353;51.420;5.682;2023-04-10T14:30:42;5.07;;;2.55;;
64094;SDS011;50353;51.420;5.682;2023-04-10T14:33:10;7.15;;;2.50;;
64094;SDS011;50353;51.420;5.682;2023-04-10T14:35:36;7.78;;;2.80;;
64094;SDS011;50353;51.420;5.682;2023-04-10T14:38:02;7.35;;;2.60;;
64094;SDS011;50353;51.420;5.682;2023-04-10T14:40:27;4.50;;;2.45;;
64094;SDS011;50353;51.420;5.682;2023-04-10T14:42:52;7.65;;;2.63;;
64094;SDS011;50353;51.420;5.682;2023-04-10T14:45:18;6.13;;;2.80;;
64094;SDS011;50353;51.420;5.682;2023-04-10T14:47:43;7.60;;;2.70;;
64094;SDS011;50353;51.420;5.682;2023-04-10T14:50:09;5.13;;;2.20;;
64094;SDS011;50353;51.420;5.682;2023-04-10T14:52:35;7.55;;;2.70;;
64094;SDS011;50353;51.420;5.682;2023-04-10T14:55:00;6.38;;;2.50;;
64094;SDS011;50353;51.420;5.682;2023-04-10T14:57:26;5.63;;;3.20;;
64094;SDS011;50353;51.420;5.682;2023-04-10T14:59:53;3.90;;;2.50;;
64094;SDS011;50353;51.420;5.682;2023-04-10T15:02:18;5.07;;;2.40;;
64094;SDS011;50353;51.420;5.682;2023-04-10T15:04:44;6.03;;;2.58;;
64094;SDS011;50353;51.420;5.682;2023-04-10T15:07:09;5.50;;;2.70;;